sensor_id;sensor_type;location;lat;lon;timestamp;pressure;altitude;pressure_sealevel;temperature;humidity
75767;BME280;64378;55.596;13.014;2023-03-14T00:01:28;98380.91;;;18.22;39.14
75767;BME280;64378;55.596;13.014;2023-03-14T00:03:53;98385.84;;;18.20;38.90
75767;BME280;64378;55.596;13.014;2023-03-14T00:06:19;98374.16;;;18.19;39.21
75767;BME280;64378;55.596;13.014;2023-03-14T00:08:45;98353.44;;;18.18;39.10
75767;BME280;64378;55.596;13.014;2023-03-14T00:11:12;98365.13;;;18.19;39.02
75767;BME280;64378;55.596;13.014;2023-03-14T00:13:38;98364.63;;;18.17;39.24
75767;BME280;64378;55.596;13.014;2023-03-14T00:16:04;98351.00;;;18.17;39.08
75767;BME280;64378;55.596;13.014;2023-03-14T00:18:31;98354.53;;;18.17;39.15
75767;BME280;64378;55.596;13.014;2023-03-14T00:20:57;98348.25;;;18.17;39.28
75767;BME280;64378;55.596;13.014;2023-03-14T00:23:23;98338.47;;;18.16;39.21
75767;BME280;64378;55.596;13.014;2023-03-14T00:25:48;98342.00;;;18.16;39.31
75767;BME280;64378;55.596;13.014;2023-03-14T00:28:13;98336.22;;;18.18;39.04
75767;BME280;64378;55.596;13.014;2023-03-14T00:30:39;98349.09;;;18.17;38.99
75767;BME280;64378;55.596;13.014;2023-03-14T00:33:04;98340.06;;;18.17;39.06
75767;BME280;64378;55.596;13.014;2023-03-14T00:35:29;98333.81;;;18.16;39.18
75767;BME280;64378;55.596;13.014;2023-03-14T00:37:55;98339.28;;;18.16;39.31
75767;BME280;64378;55.596;13.014;2023-03-14T00:40:20;98331.09;;;18.16;39.02
75767;BME280;64378;55.596;13.014;2023-03-14T00:42:45;98326.75;;;18.15;39.28
75767;BME280;64378;55.596;13.014;2023-03-14T00:45:10;98324.81;;;18.16;39.28
75767;BME280;64378;55.596;13.014;2023-03-14T00:47:36;98332.22;;;18.15;39.25
75767;BME280;64378;55.596;13.014;2023-03-14T00:50:01;98316.13;;;18.14;39.14
75767;BME280;64378;55.596;13.014;2023-03-14T00:52:26;98321.91;;;18.12;38.92
75767;BME280;64378;55.596;13.014;2023-03-14T00:54:51;98313.72;;;18.12;39.21
75767;BME280;64378;55.596;13.014;2023-03-14T00:57:17;98314.00;;;18.11;39.20
75767;BME280;64378;55.596;13.014;2023-03-14T00:59:42;98311.28;;;18.11;39.00
75767;BME280;64378;55.596;13.014;2023-03-14T01:02:07;98314.81;;;18.11;39.04
75767;BME280;64378;55.596;13.014;2023-03-14T01:04:33;98306.94;;;18.10;38.92
75767;BME280;64378;55.596;13.014;2023-03-14T01:06:59;98299.91;;;18.09;39.21
75767;BME280;64378;55.596;13.014;2023-03-14T01:09:24;98304.53;;;18.08;39.16
75767;BME280;64378;55.596;13.014;2023-03-14T01:11:50;98312.22;;;18.06;39.26
75767;BME280;64378;55.596;13.014;2023-03-14T01:14:15;98313.81;;;18.07;39.13
75767;BME280;64378;55.596;13.014;2023-03-14T01:16:40;98305.97;;;18.06;39.09
75767;BME280;64378;55.596;13.014;2023-03-14T01:19:06;98316.88;;;18.06;39.02
75767;BME280;64378;55.596;13.014;2023-03-14T01:21:33;98307.06;;;18.05;39.01
75767;BME280;64378;55.596;13.014;2023-03-14T01:24:01;98303.53;;;18.04;39.20
75767;BME280;64378;55.596;13.014;2023-03-14T01:26:28;98302.72;;;18.04;39.19
75767;BME280;64378;55.596;13.014;2023-03-14T01:28:54;98305.47;;;18.04;39.18
75767;BME280;64378;55.596;13.014;2023-03-14T01:31:20;98305.47;;;18.04;39.29
75767;BME280;64378;55.596;13.014;2023-03-14T01:33:45;98304.63;;;18.03;39.23
75767;BME280;64378;55.596;13.014;2023-03-14T01:36:11;98306.56;;;18.03;39.29
75767;BME280;64378;55.596;13.014;2023-03-14T01:38:37;98300.28;;;18.02;39.22
75767;BME280;64378;55.596;13.014;2023-03-14T01:41:03;98302.22;;;18.02;39.29
75767;BME280;64378;55.596;13.014;2023-03-14T01:43:29;98295.94;;;18.01;39.31
75767;BME280;64378;55.596;13.014;2023-03-14T01:48:19;98306.06;;;18.01;39.25
75767;BME280;64378;55.596;13.014;2023-03-14T01:50:45;98312.31;;;18.01;39.35
75767;BME280;64378;55.596;13.014;2023-03-14T01:53:10;98310.41;;;18.02;39.30
75767;BME280;64378;55.596;13.014;2023-03-14T01:55:35;98320.50;;;18.01;39.59
75767;BME280;64378;55.596;13.014;2023-03-14T01:58:02;98324.06;;;18.02;39.38
75767;BME280;64378;55.596;13.014;2023-03-14T02:00:29;98326.78;;;18.02;39.64
75767;BME280;64378;55.596;13.014;2023-03-14T02:02:58;98315.06;;;18.01;39.46
75767;BME280;64378;55.596;13.014;2023-03-14T02:05:26;98317.00;;;18.01;39.46
75767;BME280;64378;55.596;13.014;2023-03-14T02:07:54;98314.25;;;18.01;39.26
75767;BME280;64378;55.596;13.014;2023-03-14T02:10:21;98312.66;;;18.00;39.36
75767;BME280;64378;55.596;13.014;2023-03-14T02:12:48;98309.41;;;17.98;39.57
75767;BME280;64378;55.596;13.014;2023-03-14T02:15:13;98318.09;;;18.00;39.46
75767;BME280;64378;55.596;13.014;2023-03-14T02:17:40;98313.44;;;18.00;39.78
75767;BME280;64378;55.596;13.014;2023-03-14T02:22:34;98297.88;;;18.01;39.53
75767;BME280;64378;55.596;13.014;2023-03-14T02:25:08;98303.34;;;18.01;39.75
75767;BME280;64378;55.596;13.014;2023-03-14T02:27:34;98307.97;;;18.00;39.71
75767;BME280;64378;55.596;13.014;2023-03-14T02:30:04;98308.81;;;18.01;39.84
75767;BME280;64378;55.596;13.014;2023-03-14T02:32:30;98315.06;;;18.01;39.67
75767;BME280;64378;55.596;13.014;2023-03-14T02:34:57;98324.06;;;18.02;39.74
75767;BME280;64378;55.596;13.014;2023-03-14T02:37:24;98332.53;;;18.00;39.75
75767;BME280;64378;55.596;13.014;2023-03-14T02:39:51;98330.63;;;18.01;39.74
75767;BME280;64378;55.596;13.014;2023-03-14T02:42:16;98340.44;;;18.02;39.72
75767;BME280;64378;55.596;13.014;2023-03-14T02:44:55;98338.50;;;18.02;39.79
75767;BME280;64378;55.596;13.014;2023-03-14T02:47:29;98331.13;;;18.03;39.61
75767;BME280;64378;55.596;13.014;2023-03-14T02:49:57;98326.78;;;18.02;39.70
75767;BME280;64378;55.596;13.014;2023-03-14T02:52:24;98331.44;;;18.01;39.86
75767;BME280;64378;55.596;13.014;2023-03-14T02:54:49;98336.88;;;18.01;39.54
75767;BME280;64378;55.596;13.014;2023-03-14T02:57:15;98330.03;;;18.04;39.63
75767;BME280;64378;55.596;13.014;2023-03-14T02:59:40;98329.19;;;18.03;39.59
75767;BME280;64378;55.596;13.014;2023-03-14T03:02:05;98330.03;;;18.04;39.80
75767;BME280;64378;55.596;13.014;2023-03-14T03:04:31;98318.28;;;18.03;39.62
75767;BME280;64378;55.596;13.014;2023-03-14T03:06:56;98329.53;;;18.02;39.81
75767;BME280;64378;55.596;13.014;2023-03-14T03:09:21;98337.72;;;18.02;39.80
75767;BME280;64378;55.596;13.014;2023-03-14T03:11:46;98324.06;;;18.02;39.72
75767;BME280;64378;55.596;13.014;2023-03-14T03:14:12;98324.84;;;18.02;40.01
75767;BME280;64378;55.596;13.014;2023-03-14T03:16:37;98317.00;;;18.01;39.91
75767;BME280;64378;55.596;13.014;2023-03-14T03:19:02;98320.50;;;18.01;39.89
75767;BME280;64378;55.596;13.014;2023-03-14T03:21:27;98321.34;;;18.02;39.81
75767;BME280;64378;55.596;13.014;2023-03-14T03:23:53;98325.19;;;18.01;39.63
75767;BME280;64378;55.596;13.014;2023-03-14T03:26:18;98318.91;;;18.00;39.59
75767;BME280;64378;55.596;13.014;2023-03-14T03:28:43;98307.97;;;18.00;39.35
75767;BME280;64378;55.596;13.014;2023-03-14T03:31:09;98321.63;;;18.00;39.60
75767;BME280;64378;55.596;13.014;2023-03-14T03:33:35;98302.53;;;18.00;39.75
75767;BME280;64378;55.596;13.014;2023-03-14T03:36:00;98288.09;;;18.00;39.91
75767;BME280;64378;55.596;13.014;2023-03-14T03:38:26;98277.47;;;17.98;39.91
75767;BME280;64378;55.596;13.014;2023-03-14T03:40:51;98273.94;;;17.98;39.84
75767;BME280;64378;55.596;13.014;2023-03-14T03:43:16;98261.91;;;17.99;39.89
75767;BME280;64378;55.596;13.014;2023-03-14T03:45:43;98264.94;;;17.97;39.90
75767;BME280;64378;55.596;13.014;2023-03-14T03:48:08;98267.66;;;17.97;39.72
75767;BME280;64378;55.596;13.014;2023-03-14T03:50:33;98272.34;;;17.97;39.70
75767;BME280;64378;55.596;13.014;2023-03-14T03:52:59;98279.72;;;17.96;39.93
75767;BME280;64378;55.596;13.014;2023-03-14T03:55:24;98289.50;;;17.97;39.88
75767;BME280;64378;55.596;13.014;2023-03-14T03:57:50;98285.19;;;17.96;39.93
75767;BME280;64378;55.596;13.014;2023-03-14T04:00:16;98285.97;;;17.97;40.05
75767;BME280;64378;55.596;13.014;2023-03-14T04:02:41;98288.69;;;17.97;39.96
75767;BME280;64378;55.596;13.014;2023-03-14T04:05:07;98282.13;;;17.98;40.05
75767;BME280;64378;55.596;13.014;2023-03-14T04:07:32;98276.69;;;17.98;40.07
75767;BME280;64378;55.596;13.014;2023-03-14T04:09:57;98285.97;;;17.97;40.15
75767;BME280;64378;55.596;13.014;2023-03-14T04:12:23;98283.25;;;17.97;39.86
75767;BME280;64378;55.596;13.014;2023-03-14T04:14:48;98293.03;;;17.98;40.02
75767;BME280;64378;55.596;13.014;2023-03-14T04:17:13;98289.50;;;17.97;40.06
75767;BME280;64378;55.596;13.014;2023-03-14T04:19:39;98277.00;;;17.96;39.95
75767;BME280;64378;55.596;13.014;2023-03-14T04:22:04;98285.19;;;17.96;40.23
75767;BME280;64378;55.596;13.014;2023-03-14T04:24:29;98298.81;;;17.96;39.91
75767;BME280;64378;55.596;13.014;2023-03-14T04:26:54;98296.38;;;17.95;39.84
75767;BME280;64378;55.596;13.014;2023-03-14T04:29:20;98304.56;;;17.95;40.26
75767;BME280;64378;55.596;13.014;2023-03-14T04:31:45;98311.13;;;17.94;39.98
75767;BME280;64378;55.596;13.014;2023-03-14T04:34:10;98324.78;;;17.94;40.26
75767;BME280;64378;55.596;13.014;2023-03-14T04:36:36;98311.13;;;17.94;40.25
75767;BME280;64378;55.596;13.014;2023-03-14T04:39:01;98304.91;;;17.93;40.07
75767;BME280;64378;55.596;13.014;2023-03-14T04:41:26;98310.34;;;17.93;40.24
75767;BME280;64378;55.596;13.014;2023-03-14T04:43:51;98308.41;;;17.94;40.00
75767;BME280;64378;55.596;13.014;2023-03-14T04:46:17;98301.34;;;17.93;40.31
75767;BME280;64378;55.596;13.014;2023-03-14T04:48:42;98308.72;;;17.92;40.29
75767;BME280;64378;55.596;13.014;2023-03-14T04:51:07;98294.28;;;17.92;40.18
75767;BME280;64378;55.596;13.014;2023-03-14T04:53:33;98295.88;;;17.93;40.29
75767;BME280;64378;55.596;13.014;2023-03-14T04:55:59;98297.00;;;17.92;40.34
75767;BME280;64378;55.596;13.014;2023-03-14T04:58:24;98299.72;;;17.92;40.26
75767;BME280;64378;55.596;13.014;2023-03-14T05:00:49;98294.28;;;17.92;40.42
75767;BME280;64378;55.596;13.014;2023-03-14T05:03:15;98295.09;;;17.92;40.26
75767;BME280;64378;55.596;13.014;2023-03-14T05:05:41;98292.66;;;17.91;40.49
75767;BME280;64378;55.596;13.014;2023-03-14T05:08:08;98279.84;;;17.91;40.49
75767;BME280;64378;55.596;13.014;2023-03-14T05:10:34;98277.09;;;17.91;40.20
75767;BME280;64378;55.596;13.014;2023-03-14T05:12:59;98276.28;;;17.91;40.35
75767;BME280;64378;55.596;13.014;2023-03-14T05:15:24;98279.00;;;17.91;40.70
75767;BME280;64378;55.596;13.014;2023-03-14T05:17:50;98283.34;;;17.92;40.60
75767;BME280;64378;55.596;13.014;2023-03-14T05:20:15;98263.16;;;17.93;40.78
75767;BME280;64378;55.596;13.014;2023-03-14T05:22:40;98269.72;;;17.92;40.73
75767;BME280;64378;55.596;13.014;2023-03-14T05:25:06;98258.00;;;17.91;40.70
75767;BME280;64378;55.596;13.014;2023-03-14T05:27:32;98258.81;;;17.92;40.51
75767;BME280;64378;55.596;13.014;2023-03-14T05:29:57;98254.47;;;17.91;40.71
75767;BME280;64378;55.596;13.014;2023-03-14T05:32:23;98254.47;;;17.91;40.53
75767;BME280;64378;55.596;13.014;2023-03-14T05:34:48;98252.84;;;17.90;40.61
75767;BME280;64378;55.596;13.014;2023-03-14T05:37:14;98248.22;;;17.90;40.45
75767;BME280;64378;55.596;13.014;2023-03-14T05:39:39;98246.59;;;17.89;40.64
75767;BME280;64378;55.596;13.014;2023-03-14T05:42:04;98238.72;;;17.88;40.51
75767;BME280;64378;55.596;13.014;2023-03-14T05:44:30;98231.63;;;17.87;40.42
75767;BME280;64378;55.596;13.014;2023-03-14T05:46:55;98246.59;;;17.89;40.59
75767;BME280;64378;55.596;13.014;2023-03-14T05:49:20;98245.78;;;17.89;40.55
75767;BME280;64378;55.596;13.014;2023-03-14T05:51:46;98252.84;;;17.90;40.76
75767;BME280;64378;55.596;13.014;2023-03-14T05:54:11;98250.13;;;17.90;40.72
75767;BME280;64378;55.596;13.014;2023-03-14T05:56:36;98243.53;;;17.91;40.52
75767;BME280;64378;55.596;13.014;2023-03-14T05:59:01;98249.81;;;17.91;40.82
75767;BME280;64378;55.596;13.014;2023-03-14T06:01:28;98243.25;;;17.92;40.78
75767;BME280;64378;55.596;13.014;2023-03-14T06:03:54;98238.91;;;17.91;40.70
75767;BME280;64378;55.596;13.014;2023-03-14T06:06:19;98245.97;;;17.92;40.55
75767;BME280;64378;55.596;13.014;2023-03-14T06:08:44;98233.13;;;17.93;40.25
75767;BME280;64378;55.596;13.014;2023-03-14T06:11:10;98232.34;;;17.92;40.55
75767;BME280;64378;55.596;13.014;2023-03-14T06:13:35;98215.97;;;17.92;40.66
75767;BME280;64378;55.596;13.014;2023-03-14T06:16:00;98224.16;;;17.92;40.44
75767;BME280;64378;55.596;13.014;2023-03-14T06:18:26;98228.78;;;17.92;40.61
75767;BME280;64378;55.596;13.014;2023-03-14T06:20:54;98232.34;;;17.92;40.40
75767;BME280;64378;55.596;13.014;2023-03-14T06:23:20;98227.69;;;17.93;40.79
75767;BME280;64378;55.596;13.014;2023-03-14T06:25:46;98220.31;;;17.93;40.84
75767;BME280;64378;55.596;13.014;2023-03-14T06:28:11;98220.81;;;17.95;40.90
75767;BME280;64378;55.596;13.014;2023-03-14T06:30:36;98221.00;;;17.99;40.41
75767;BME280;64378;55.596;13.014;2023-03-14T06:33:02;98201.78;;;18.04;39.97
75767;BME280;64378;55.596;13.014;2023-03-14T06:35:27;98212.84;;;18.07;39.96
75767;BME280;64378;55.596;13.014;2023-03-14T06:37:52;98230.22;;;18.11;39.72
75767;BME280;64378;55.596;13.014;2023-03-14T06:40:18;98225.28;;;18.13;39.74
75767;BME280;64378;55.596;13.014;2023-03-14T06:42:43;98224.66;;;18.16;39.70
75767;BME280;64378;55.596;13.014;2023-03-14T06:45:09;98213.41;;;18.18;39.51
75767;BME280;64378;55.596;13.014;2023-03-14T06:47:34;98210.06;;;18.21;39.64
75767;BME280;64378;55.596;13.014;2023-03-14T06:49:59;98214.72;;;18.20;39.47
75767;BME280;64378;55.596;13.014;2023-03-14T06:52:25;98221.81;;;18.21;39.72
75767;BME280;64378;55.596;13.014;2023-03-14T06:54:50;98212.47;;;18.22;39.65
75767;BME280;64378;55.596;13.014;2023-03-14T06:57:15;98212.47;;;18.22;39.63
75767;BME280;64378;55.596;13.014;2023-03-14T06:59:40;98219.06;;;18.21;39.66
75767;BME280;64378;55.596;13.014;2023-03-14T07:02:07;98220.66;;;18.22;39.51
75767;BME280;64378;55.596;13.014;2023-03-14T07:04:35;98222.00;;;18.25;39.63
75767;BME280;64378;55.596;13.014;2023-03-14T07:07:00;98220.88;;;18.26;39.51
75767;BME280;64378;55.596;13.014;2023-03-14T07:09:25;98221.38;;;18.28;39.73
75767;BME280;64378;55.596;13.014;2023-03-14T07:11:51;98224.63;;;18.30;39.67
75767;BME280;64378;55.596;13.014;2023-03-14T07:14:16;98216.91;;;18.32;39.77
75767;BME280;64378;55.596;13.014;2023-03-14T07:16:41;98206.00;;;18.32;39.79
75767;BME280;64378;55.596;13.014;2023-03-14T07:19:07;98204.88;;;18.33;39.65
75767;BME280;64378;55.596;13.014;2023-03-14T07:21:32;98217.41;;;18.34;39.84
75767;BME280;64378;55.596;13.014;2023-03-14T07:23:59;98207.78;;;18.36;39.76
75767;BME280;64378;55.596;13.014;2023-03-14T07:26:25;98205.06;;;18.36;40.05
75767;BME280;64378;55.596;13.014;2023-03-14T07:28:50;98199.25;;;18.38;40.01
75767;BME280;64378;55.596;13.014;2023-03-14T07:31:15;98214.53;;;18.39;39.96
75767;BME280;64378;55.596;13.014;2023-03-14T07:33:40;98217.75;;;18.41;39.80
75767;BME280;64378;55.596;13.014;2023-03-14T07:36:06;98221.31;;;18.41;39.80
75767;BME280;64378;55.596;13.014;2023-03-14T07:38:31;98216.63;;;18.42;39.99
75767;BME280;64378;55.596;13.014;2023-03-14T07:41:00;98214.72;;;18.42;39.59
75767;BME280;64378;55.596;13.014;2023-03-14T07:43:26;98210.38;;;18.41;39.77
75767;BME280;64378;55.596;13.014;2023-03-14T07:45:51;98219.06;;;18.43;39.79
75767;BME280;64378;55.596;13.014;2023-03-14T07:48:17;98210.06;;;18.43;39.89
75767;BME280;64378;55.596;13.014;2023-03-14T07:50:42;98211.38;;;18.45;40.01
75767;BME280;64378;55.596;13.014;2023-03-14T07:53:07;98204.31;;;18.44;39.55
75767;BME280;64378;55.596;13.014;2023-03-14T07:55:32;98205.09;;;18.45;39.72
75767;BME280;64378;55.596;13.014;2023-03-14T07:57:58;98198.84;;;18.44;39.77
75767;BME280;64378;55.596;13.014;2023-03-14T08:00:23;98193.38;;;18.44;39.57
75767;BME280;64378;55.596;13.014;2023-03-14T08:02:48;98201.25;;;18.46;39.52
75767;BME280;64378;55.596;13.014;2023-03-14T08:05:14;98205.59;;;18.47;39.44
75767;BME280;64378;55.596;13.014;2023-03-14T08:07:39;98199.00;;;18.48;39.54
75767;BME280;64378;55.596;13.014;2023-03-14T08:10:04;98196.28;;;18.48;39.30
75767;BME280;64378;55.596;13.014;2023-03-14T08:12:30;98201.41;;;18.49;39.37
75767;BME280;64378;55.596;13.014;2023-03-14T08:14:55;98202.22;;;18.50;39.27
75767;BME280;64378;55.596;13.014;2023-03-14T08:17:20;98185.53;;;18.51;39.46
75767;BME280;64378;55.596;13.014;2023-03-14T08:19:46;98193.72;;;18.51;39.44
75767;BME280;64378;55.596;13.014;2023-03-14T08:22:11;98193.41;;;18.52;39.31
75767;BME280;64378;55.596;13.014;2023-03-14T08:24:36;98198.56;;;18.54;39.43
75767;BME280;64378;55.596;13.014;2023-03-14T08:27:01;98194.22;;;18.53;39.08
75767;BME280;64378;55.596;13.014;2023-03-14T08:29:27;98198.56;;;18.54;39.24
75767;BME280;64378;55.596;13.014;2023-03-14T08:31:52;98196.16;;;18.52;39.22
75767;BME280;64378;55.596;13.014;2023-03-14T08:34:18;98196.16;;;18.52;39.13
75767;BME280;64378;55.596;13.014;2023-03-14T08:36:44;98193.09;;;18.54;39.18
75767;BME280;64378;55.596;13.014;2023-03-14T08:39:09;98195.19;;;18.57;39.16
75767;BME280;64378;55.596;13.014;2023-03-14T08:41:35;98201.47;;;18.57;39.22
75767;BME280;64378;55.596;13.014;2023-03-14T08:44:09;98197.94;;;18.57;39.11
75767;BME280;64378;55.596;13.014;2023-03-14T08:46:35;98205.00;;;18.58;38.96
75767;BME280;64378;55.596;13.014;2023-03-14T08:49:00;98204.69;;;18.59;39.01
75767;BME280;64378;55.596;13.014;2023-03-14T08:51:25;98196.50;;;18.59;39.01
75767;BME280;64378;55.596;13.014;2023-03-14T08:53:51;98201.97;;;18.59;39.09
75767;BME280;64378;55.596;13.014;2023-03-14T08:56:16;98205.50;;;18.60;39.04
75767;BME280;64378;55.596;13.014;2023-03-14T08:58:41;98206.28;;;18.60;39.24
75767;BME280;64378;55.596;13.014;2023-03-14T09:01:10;98205.97;;;18.62;39.06
75767;BME280;64378;55.596;13.014;2023-03-14T09:03:35;98219.31;;;18.63;39.12
75767;BME280;64378;55.596;13.014;2023-03-14T09:06:02;98213.06;;;18.63;38.99
75767;BME280;64378;55.596;13.014;2023-03-14T09:08:28;98211.94;;;18.64;39.01
75767;BME280;64378;55.596;13.014;2023-03-14T09:10:54;98215.16;;;18.66;38.82
75767;BME280;64378;55.596;13.014;2023-03-14T09:13:19;98216.28;;;18.65;38.92
75767;BME280;64378;55.596;13.014;2023-03-14T09:15:44;98206.16;;;18.65;38.86
75767;BME280;64378;55.596;13.014;2023-03-14T09:18:10;98214.34;;;18.65;38.88
75767;BME280;64378;55.596;13.014;2023-03-14T09:20:35;98208.59;;;18.67;38.90
75767;BME280;64378;55.596;13.014;2023-03-14T09:23:00;98214.84;;;18.67;38.98
75767;BME280;64378;55.596;13.014;2023-03-14T09:25:26;98218.41;;;18.68;38.81
75767;BME280;64378;55.596;13.014;2023-03-14T09:27:51;98219.19;;;18.68;38.92
75767;BME280;64378;55.596;13.014;2023-03-14T09:30:16;98215.66;;;18.68;38.89
75767;BME280;64378;55.596;13.014;2023-03-14T09:32:42;98214.84;;;18.67;38.89
75767;BME280;64378;55.596;13.014;2023-03-14T09:35:07;98220.78;;;18.69;38.97
75767;BME280;64378;55.596;13.014;2023-03-14T09:37:33;98218.06;;;18.69;38.90
75767;BME280;64378;55.596;13.014;2023-03-14T09:39:58;98223.53;;;18.69;38.93
75767;BME280;64378;55.596;13.014;2023-03-14T09:42:25;98220.50;;;18.71;38.86
75767;BME280;64378;55.596;13.014;2023-03-14T09:44:56;98230.59;;;18.70;38.85
75767;BME280;64378;55.596;13.014;2023-03-14T09:47:21;98233.34;;;18.70;38.85
75767;BME280;64378;55.596;13.014;2023-03-14T09:49:48;98243.13;;;18.71;38.93
75767;BME280;64378;55.596;13.014;2023-03-14T09:54:40;98282.00;;;18.68;38.93
75767;BME280;64378;55.596;13.014;2023-03-14T09:57:11;98290.19;;;18.68;39.19
75767;BME280;64378;55.596;13.014;2023-03-14T09:59:37;98319.47;;;18.68;38.92
75767;BME280;64378;55.596;13.014;2023-03-14T10:02:14;98333.41;;;18.66;38.93
75767;BME280;64378;55.596;13.014;2023-03-14T10:04:40;98329.06;;;18.65;38.75
75767;BME280;64378;55.596;13.014;2023-03-14T10:07:11;98344.66;;;18.65;38.67
75767;BME280;64378;55.596;13.014;2023-03-14T10:09:38;98349.31;;;18.64;38.71
75767;BME280;64378;55.596;13.014;2023-03-14T10:12:03;98355.88;;;18.63;38.57
75767;BME280;64378;55.596;13.014;2023-03-14T10:14:32;98359.72;;;18.62;38.87
75767;BME280;64378;55.596;13.014;2023-03-14T10:17:04;98366.31;;;18.61;38.57
75767;BME280;64378;55.596;13.014;2023-03-14T10:19:29;98368.56;;;18.59;38.65
75767;BME280;64378;55.596;13.014;2023-03-14T10:21:55;98373.22;;;18.59;38.55
75767;BME280;64378;55.596;13.014;2023-03-14T10:26:53;98374.31;;;18.58;38.73
75767;BME280;64378;55.596;13.014;2023-03-14T10:29:19;98398.91;;;18.58;38.35
75767;BME280;64378;55.596;13.014;2023-03-14T10:34:16;98408.53;;;18.55;38.33
75767;BME280;64378;55.596;13.014;2023-03-14T10:36:41;98422.19;;;18.55;38.26
75767;BME280;64378;55.596;13.014;2023-03-14T10:39:26;98423.31;;;18.54;38.21
75767;BME280;64378;55.596;13.014;2023-03-14T10:41:53;98439.19;;;18.52;38.25
75767;BME280;64378;55.596;13.014;2023-03-14T10:44:23;98435.97;;;18.51;38.04
75767;BME280;64378;55.596;13.014;2023-03-14T10:47:02;98441.09;;;18.52;37.90
75767;BME280;64378;55.596;13.014;2023-03-14T10:49:32;98448.50;;;18.52;38.10
75767;BME280;64378;55.596;13.014;2023-03-14T10:55:18;98460.81;;;18.49;37.85
75767;BME280;64378;55.596;13.014;2023-03-14T10:57:43;98467.41;;;18.48;37.91
75767;BME280;64378;55.596;13.014;2023-03-14T11:00:14;98481.38;;;18.47;38.05
75767;BME280;64378;55.596;13.014;2023-03-14T11:02:58;98484.44;;;18.45;37.84
75767;BME280;64378;55.596;13.014;2023-03-14T11:05:38;98484.94;;;18.47;37.73
75767;BME280;64378;55.596;13.014;2023-03-14T11:08:11;98485.22;;;18.46;37.89
75767;BME280;64378;55.596;13.014;2023-03-14T11:10:39;98491.78;;;18.45;37.56
75767;BME280;64378;55.596;13.014;2023-03-14T11:13:26;98496.47;;;18.44;37.88
75767;BME280;64378;55.596;13.014;2023-03-14T11:18:50;98509.78;;;18.46;37.62
75767;BME280;64378;55.596;13.014;2023-03-14T11:21:32;98514.47;;;18.45;37.46
75767;BME280;64378;55.596;13.014;2023-03-14T11:26:48;98536.59;;;18.44;37.73
75767;BME280;64378;55.596;13.014;2023-03-14T11:31:51;98552.69;;;18.45;37.88
75767;BME280;64378;55.596;13.014;2023-03-14T11:35:02;98552.69;;;18.45;37.75
75767;BME280;64378;55.596;13.014;2023-03-14T11:37:14;98557.84;;;18.47;37.70
75767;BME280;64378;55.596;13.014;2023-03-14T11:39:44;98569.25;;;18.49;38.02
75767;BME280;64378;55.596;13.014;2023-03-14T11:42:13;98577.97;;;18.51;37.87
75767;BME280;64378;55.596;13.014;2023-03-14T11:44:40;98585.03;;;18.52;37.56
75767;BME280;64378;55.596;13.014;2023-03-14T11:47:13;98590.19;;;18.53;37.93
75767;BME280;64378;55.596;13.014;2023-03-14T11:49:50;98591.81;;;18.54;37.65
75767;BME280;64378;55.596;13.014;2023-03-14T11:54:58;98575.94;;;18.56;37.67
75767;BME280;64378;55.596;13.014;2023-03-14T11:57:27;98578.66;;;18.56;37.59
75767;BME280;64378;55.596;13.014;2023-03-14T12:00:03;98594.25;;;18.55;37.59
75767;BME280;64378;55.596;13.014;2023-03-14T12:07:29;98610.03;;;18.58;37.66
75767;BME280;64378;55.596;13.014;2023-03-14T12:09:58;98620.97;;;18.58;37.52
75767;BME280;64378;55.596;13.014;2023-03-14T12:12:24;98620.63;;;18.60;37.38
75767;BME280;64378;55.596;13.014;2023-03-14T12:14:54;98627.41;;;18.62;37.49
75767;BME280;64378;55.596;13.014;2023-03-14T12:17:21;98630.13;;;18.62;37.44
75767;BME280;64378;55.596;13.014;2023-03-14T12:19:48;98644.63;;;18.63;37.28
75767;BME280;64378;55.596;13.014;2023-03-14T12:22:29;98640.78;;;18.64;37.40
75767;BME280;64378;55.596;13.014;2023-03-14T12:24:59;98646.75;;;18.66;37.27
75767;BME280;64378;55.596;13.014;2023-03-14T12:30:03;98653.50;;;18.68;37.22
75767;BME280;64378;55.596;13.014;2023-03-14T12:32:35;98653.50;;;18.68;37.28
75767;BME280;64378;55.596;13.014;2023-03-14T12:35:06;98658.19;;;18.68;37.27
75767;BME280;64378;55.596;13.014;2023-03-14T12:37:42;98667.16;;;18.68;37.03
75767;BME280;64378;55.596;13.014;2023-03-14T12:40:26;98656.06;;;18.65;36.49
75767;BME280;64378;55.596;13.014;2023-03-14T12:45:33;98683.66;;;18.63;37.13
75767;BME280;64378;55.596;13.014;2023-03-14T12:50:26;98683.97;;;18.62;36.43
75767;BME280;64378;55.596;13.014;2023-03-14T12:55:45;98705.50;;;18.63;36.96
75767;BME280;64378;55.596;13.014;2023-03-14T13:00:59;98696.72;;;18.66;37.00
75767;BME280;64378;55.596;13.014;2023-03-14T13:03:26;98691.75;;;18.68;37.16
75767;BME280;64378;55.596;13.014;2023-03-14T13:06:02;98701.56;;;18.69;36.97
75767;BME280;64378;55.596;13.014;2023-03-14T13:08:42;98693.38;;;18.69;37.13
75767;BME280;64378;55.596;13.014;2023-03-14T13:11:09;98706.53;;;18.67;36.61
75767;BME280;64378;55.596;13.014;2023-03-14T13:13:35;98710.59;;;18.70;37.16
75767;BME280;64378;55.596;13.014;2023-03-14T13:16:02;98710.88;;;18.68;36.69
75767;BME280;64378;55.596;13.014;2023-03-14T13:18:37;98711.47;;;18.65;36.64
75767;BME280;64378;55.596;13.014;2023-03-14T13:21:15;98719.66;;;18.65;37.00
75767;BME280;64378;55.596;13.014;2023-03-14T13:23:42;98727.34;;;18.63;36.46
75767;BME280;64378;55.596;13.014;2023-03-14T13:26:18;98727.34;;;18.63;36.98
75767;BME280;64378;55.596;13.014;2023-03-14T13:28:43;98730.91;;;18.64;36.45
75767;BME280;64378;55.596;13.014;2023-03-14T13:31:23;98736.06;;;18.65;37.05
75767;BME280;64378;55.596;13.014;2023-03-14T13:34:01;98738.28;;;18.63;37.02